createdAt,value
2018-05-24T00:00:55.878Z,46.09
2018-05-24T00:02:00.693Z,45.90
2018-05-24T00:02:55.841Z,46.17
2018-05-24T00:03:56.128Z,46.07
2018-05-24T00:04:55.847Z,46.48
2018-05-24T00:05:55.817Z,46.07
2018-05-24T00:06:55.813Z,45.88
2018-05-24T00:07:55.828Z,45.98
2018-05-24T00:08:55.791Z,45.78
2018-05-24T00:09:55.787Z,46.26
2018-05-24T00:10:55.835Z,46.36
2018-05-24T00:11:55.785Z,46.36
2018-05-24T00:12:56.781Z,46.55
2018-05-24T00:13:55.778Z,46.48
2018-05-24T00:14:55.772Z,46.36
2018-05-24T00:15:56.718Z,46.45
2018-05-24T00:16:55.746Z,46.26
2018-05-24T00:17:55.736Z,46.36
2018-05-24T00:18:55.727Z,46.45
2018-05-24T00:19:57.327Z,46.65
2018-05-24T00:20:55.699Z,46.65
2018-05-24T00:21:55.707Z,46.17
2018-05-24T00:22:55.684Z,45.98
2018-05-24T00:23:57.774Z,46.65
2018-05-24T00:24:55.673Z,46.26
2018-05-24T00:25:55.696Z,46.17
2018-05-24T00:26:55.666Z,46.17
2018-05-24T00:27:55.658Z,45.98
2018-05-24T00:28:55.646Z,46.07
2018-05-24T00:29:59.211Z,45.98
2018-05-24T00:30:57.232Z,46.07
2018-05-24T00:31:55.613Z,46.45
2018-05-24T00:33:10.211Z,46.45
2018-05-24T00:33:55.599Z,46.45
2018-05-24T00:34:55.628Z,46.45
2018-05-24T00:35:55.578Z,45.98
2018-05-24T00:36:55.703Z,46.26
2018-05-24T00:37:55.595Z,46.36
2018-05-24T00:38:55.720Z,46.45
2018-05-24T00:39:55.589Z,46.36
2018-05-24T00:40:55.825Z,46.55
2018-05-24T00:41:55.552Z,46.65
2018-05-24T00:42:56.178Z,46.36
2018-05-24T00:43:55.557Z,46.74
2018-05-24T00:44:55.502Z,46.65
2018-05-24T00:45:55.498Z,47.03
2018-05-24T00:46:55.544Z,46.45
2018-05-24T00:47:55.538Z,46.36
2018-05-24T00:48:55.477Z,46.45
2018-05-24T00:49:55.505Z,46.65
2018-05-24T00:50:55.466Z,46.94
2018-05-24T00:51:55.467Z,46.74
2018-05-24T00:58:04.453Z,46.65
2018-05-24T00:58:52.970Z,46.94
2018-05-24T00:59:56.450Z,46.74
2018-05-24T01:00:52.221Z,47.03
2018-05-24T01:01:52.151Z,46.74
2018-05-24T01:02:50.625Z,47.13
2018-05-24T01:03:53.953Z,46.84
2018-05-24T01:04:53.063Z,46.94
2018-05-24T01:05:50.468Z,46.72
2018-05-24T01:06:50.540Z,47.03
2018-05-24T01:07:53.615Z,47.61
2018-05-24T01:08:50.498Z,47.10
2018-05-24T01:09:50.590Z,47.30
2018-05-24T01:10:50.433Z,47.20
2018-05-24T01:11:51.048Z,47.03
2018-05-24T01:12:50.420Z,47.22
2018-05-24T01:13:50.405Z,47.30
2018-05-24T01:14:50.426Z,47.01
2018-05-24T01:15:51.641Z,47.10
2018-05-24T01:16:50.402Z,47.39
2018-05-24T01:21:21.356Z,47.80
2018-05-24T01:24:59.113Z,47.49
2018-05-24T01:25:59.608Z,47.30
2018-05-24T01:26:58.065Z,47.68
2018-05-24T01:27:57.600Z,47.68
2018-05-24T01:28:57.469Z,47.39
2018-05-24T01:29:56.939Z,47.68
2018-05-24T01:30:58.604Z,47.49
2018-05-24T01:31:58.652Z,47.77
2018-05-24T01:32:58.349Z,47.68
2018-05-24T01:33:56.887Z,47.97
2018-05-24T01:34:56.790Z,47.87
2018-05-24T01:35:56.785Z,47.97
2018-05-24T01:36:56.791Z,47.97
2018-05-24T01:37:57.693Z,48.54
2018-05-24T01:38:56.747Z,48.44
2018-05-24T01:39:57.201Z,48.54
2018-05-24T01:40:56.765Z,48.74
2018-05-24T01:41:56.761Z,48.64
2018-05-24T01:42:56.713Z,48.25
2018-05-24T01:43:56.705Z,49.02
2018-05-24T01:44:56.708Z,48.74
2018-05-24T01:45:56.772Z,48.35
2018-05-24T01:46:56.673Z,48.74
2018-05-24T01:47:56.683Z,48.16
2018-05-24T01:48:56.678Z,48.35
2018-05-24T02:10:26.604Z,49.38
2018-05-24T02:11:19.758Z,49.88
2018-05-24T02:12:19.277Z,49.86
2018-05-24T02:13:18.263Z,50.05
2018-05-24T02:14:17.637Z,49.96
2018-05-24T02:15:17.886Z,49.76
2018-05-24T02:16:20.454Z,50.24
2018-05-24T02:17:18.501Z,50.15
2018-05-24T02:18:18.263Z,50.43
2018-05-24T02:19:18.897Z,50.63
2018-05-24T02:20:18.412Z,50.24
2018-05-24T02:21:18.898Z,50.34
2018-05-24T02:22:16.913Z,50.15
2018-05-24T02:23:16.990Z,50.82
2018-05-24T02:34:38.905Z,51.40
2018-05-24T02:35:38.927Z,51.30
2018-05-24T02:36:36.591Z,51.87
2018-05-24T02:37:38.255Z,51.59
2018-05-24T02:38:38.879Z,51.95
2018-05-24T02:39:36.985Z,51.46
2018-05-24T02:40:37.016Z,51.46
2018-05-24T02:41:36.351Z,51.75
2018-05-24T02:42:36.323Z,51.56
2018-05-24T02:43:36.311Z,51.85
2018-05-24T02:44:37.075Z,52.04
2018-05-24T02:45:36.329Z,51.65
2018-05-24T02:46:36.972Z,51.65
2018-05-24T02:56:47.635Z,53.00
2018-05-24T02:57:39.393Z,52.04
2018-05-24T02:58:37.685Z,52.42
2018-05-24T02:59:38.096Z,52.14
2018-05-24T03:00:36.760Z,51.95
2018-05-24T03:01:38.251Z,52.14
2018-05-24T03:02:38.603Z,52.04
2018-05-24T03:03:37.604Z,52.14
2018-05-24T03:04:36.652Z,52.71
2018-05-24T03:05:36.713Z,52.71
2018-05-24T03:06:36.761Z,52.71
2018-05-24T03:07:37.584Z,52.52
2018-05-24T03:08:36.588Z,52.71
2018-05-24T03:09:36.643Z,52.81
2018-05-24T03:17:22.362Z,53.00
2018-05-24T03:18:00.618Z,53.00
2018-05-24T03:19:00.989Z,52.81
2018-05-24T03:20:01.871Z,53.19
2018-05-24T03:21:00.616Z,52.71
2018-05-24T03:22:00.432Z,54.05
2018-05-24T03:23:01.619Z,53.19
2018-05-24T03:24:01.216Z,53.38
2018-05-24T03:24:59.673Z,53.58
2018-05-24T03:25:59.830Z,53.67
2018-05-24T03:26:59.683Z,53.86
2018-05-24T03:27:59.646Z,53.86
2018-05-24T03:28:59.723Z,53.86
2018-05-24T03:30:04.458Z,53.86
2018-05-24T03:30:59.610Z,53.58
2018-05-24T03:32:03.462Z,53.48
2018-05-24T03:32:59.589Z,53.58
2018-05-24T03:33:59.794Z,53.67
2018-05-24T03:34:59.585Z,53.77
2018-05-24T03:35:59.564Z,53.67
2018-05-24T03:37:06.002Z,53.86
2018-05-24T03:38:00.953Z,53.48
2018-05-24T03:39:14.148Z,53.67
2018-05-24T03:40:01.214Z,53.77
2018-05-24T03:40:59.891Z,53.58
2018-05-24T03:41:59.978Z,53.77
2018-05-24T03:42:59.609Z,53.86
2018-05-24T03:44:01.455Z,53.77
2018-05-24T03:45:02.397Z,53.45
2018-05-24T03:46:01.898Z,53.45
2018-05-24T03:46:59.491Z,53.38
2018-05-24T03:47:59.449Z,53.38
2018-05-24T03:48:59.448Z,53.48
2018-05-24T03:49:59.440Z,53.38
2018-05-24T03:50:59.485Z,53.96
2018-05-24T03:52:00.043Z,53.86
2018-05-24T03:52:59.497Z,54.15
2018-05-24T03:53:59.408Z,53.86
2018-05-24T03:54:59.389Z,54.15
2018-05-24T03:55:59.396Z,54.15
2018-05-24T03:56:59.411Z,54.34
2018-05-24T03:57:59.361Z,54.53
2018-05-24T03:58:59.389Z,54.34
2018-05-24T03:59:59.376Z,54.63
2018-05-24T04:00:59.339Z,54.24
2018-05-24T04:01:59.340Z,54.24
2018-05-24T04:02:59.330Z,54.24
2018-05-24T04:03:59.309Z,54.44
2018-05-24T04:05:00.009Z,54.15
2018-05-24T04:05:59.498Z,54.24
2018-05-24T04:06:59.546Z,54.24
2018-05-24T04:07:59.277Z,54.44
2018-05-24T04:08:59.274Z,54.34
2018-05-24T04:10:00.028Z,54.53
2018-05-24T04:10:59.242Z,54.44
2018-05-24T04:11:59.349Z,54.44
2018-05-24T04:12:59.243Z,54.72
2018-05-24T04:13:59.296Z,54.53
2018-05-24T04:15:00.007Z,54.34
2018-05-24T04:15:59.204Z,55.01
2018-05-24T04:16:59.204Z,55.11
2018-05-24T04:17:59.181Z,55.01
2018-05-24T04:18:59.335Z,55.01
2018-05-24T04:19:59.194Z,55.21
2018-05-24T04:20:59.160Z,54.91
2018-05-24T04:21:59.166Z,55.21
2018-05-24T04:23:00.025Z,54.63
2018-05-24T04:23:59.198Z,55.58
2018-05-24T04:24:59.183Z,55.40
2018-05-24T04:25:59.384Z,55.40
2018-05-24T04:27:01.092Z,55.68
2018-05-24T04:32:36.425Z,55.58
2018-05-24T04:33:29.177Z,56.07
2018-05-24T04:34:29.146Z,55.78
2018-05-24T04:35:29.133Z,55.78
2018-05-24T04:36:29.160Z,55.97
2018-05-24T04:37:29.128Z,56.07
2018-05-24T04:38:29.110Z,55.75
2018-05-24T04:39:29.107Z,56.32
2018-05-24T04:40:29.087Z,56.45
2018-05-24T04:41:29.226Z,56.45
2018-05-24T04:42:29.073Z,56.74
2018-05-24T04:43:29.062Z,57.12
2018-05-24T04:44:29.058Z,57.21
2018-05-24T04:45:29.098Z,57.31
2018-05-24T04:46:29.031Z,57.28
2018-05-24T04:47:29.053Z,57.28
2018-05-24T04:48:29.017Z,56.93
2018-05-24T04:49:29.002Z,57.12
2018-05-24T04:50:28.997Z,57.28
2018-05-24T04:51:29.023Z,57.31
2018-05-24T04:52:28.985Z,57.21
2018-05-24T04:53:28.973Z,57.21
2018-05-24T04:54:28.999Z,57.21
2018-05-24T04:55:28.955Z,57.12
2018-05-24T04:56:28.957Z,57.03
2018-05-24T04:57:28.935Z,57.31
2018-05-24T04:58:28.933Z,57.21
2018-05-24T04:59:28.921Z,57.21
2018-05-24T05:00:28.916Z,57.41
2018-05-24T05:01:28.888Z,57.31
2018-05-24T05:02:29.110Z,57.21
2018-05-24T05:03:29.439Z,57.12
2018-05-24T05:04:29.486Z,57.03
2018-05-24T05:05:28.865Z,57.12
2018-05-24T05:06:28.858Z,57.03
2018-05-24T05:07:28.846Z,57.21
2018-05-24T05:08:28.841Z,57.31
2018-05-24T05:09:28.844Z,56.74
2018-05-24T05:10:28.820Z,57.50
2018-05-24T05:11:28.839Z,57.31
2018-05-24T05:12:28.795Z,57.41
2018-05-24T05:13:28.809Z,57.41
2018-05-24T05:14:28.783Z,57.21
2018-05-24T05:15:28.774Z,57.03
2018-05-24T05:16:28.795Z,57.79
2018-05-24T05:17:28.759Z,57.41
2018-05-24T05:18:28.777Z,57.21
2018-05-24T05:19:28.814Z,57.50
2018-05-24T05:20:28.739Z,57.21
2018-05-24T05:21:28.722Z,57.31
2018-05-24T05:22:28.718Z,57.72
2018-05-24T05:23:28.745Z,57.63
2018-05-24T05:24:28.758Z,57.82
2018-05-24T05:25:28.673Z,57.92
2018-05-24T05:26:28.680Z,57.53
2018-05-24T05:27:28.671Z,57.43
2018-05-24T05:28:28.657Z,57.82
2018-05-24T05:29:28.649Z,58.39
2018-05-24T05:30:28.649Z,58.30
2018-05-24T05:31:28.625Z,58.30
2018-05-24T05:32:28.624Z,58.30
2018-05-24T05:33:28.695Z,58.30
2018-05-24T05:34:28.609Z,57.72
2018-05-24T05:35:28.594Z,58.11
2018-05-24T05:36:28.590Z,58.30
2018-05-24T05:37:28.589Z,58.39
2018-05-24T05:38:28.565Z,58.69
2018-05-24T05:39:28.698Z,58.39
2018-05-24T05:40:28.557Z,58.30
2018-05-24T05:41:28.556Z,58.20
2018-05-24T05:42:28.543Z,58.97
2018-05-24T05:43:28.535Z,58.78
2018-05-24T05:44:28.527Z,58.78
2018-05-24T05:45:28.521Z,58.59
2018-05-24T05:46:28.495Z,58.39
2018-05-24T05:47:28.492Z,58.20
2018-05-24T05:48:28.497Z,58.30
2018-05-24T05:49:28.492Z,57.82
2018-05-24T05:50:28.498Z,58.39
2018-05-24T05:51:28.528Z,58.30
2018-05-24T05:52:28.456Z,58.01
2018-05-24T05:53:28.445Z,58.49
2018-05-24T05:54:28.431Z,58.87
2018-05-24T05:55:28.479Z,58.59
2018-05-24T05:56:28.997Z,58.87
2018-05-24T05:57:28.404Z,58.97
2018-05-24T05:58:28.392Z,58.87
2018-05-24T05:59:28.389Z,58.97
2018-05-24T06:00:28.382Z,58.49
2018-05-24T06:01:28.526Z,58.78
2018-05-24T06:02:28.380Z,58.39
2018-05-24T06:03:28.355Z,58.69
2018-05-24T06:04:28.351Z,58.78
2018-05-24T06:05:28.340Z,58.69
2018-05-24T06:06:28.326Z,59.64
2018-05-24T06:07:28.353Z,59.58
2018-05-24T06:08:28.320Z,59.55
2018-05-24T06:09:28.307Z,59.55
2018-05-24T06:10:29.008Z,59.55
2018-05-24T06:11:28.292Z,59.58
2018-05-24T06:12:28.326Z,59.00
2018-05-24T06:13:28.436Z,58.78
2018-05-24T06:14:28.268Z,59.29
2018-05-24T06:15:28.255Z,59.77
2018-05-24T06:16:28.255Z,59.38
2018-05-24T06:17:28.236Z,59.38
2018-05-24T06:18:28.239Z,59.48
2018-05-24T06:19:28.232Z,59.38
2018-05-24T06:20:28.216Z,59.58
2018-05-24T06:21:28.290Z,59.48
2018-05-24T06:22:28.205Z,59.38
2018-05-24T06:23:28.188Z,59.61
2018-05-24T06:24:28.229Z,59.38
2018-05-24T06:25:28.182Z,58.52
2018-05-24T06:26:28.169Z,58.52
2018-05-24T06:27:28.160Z,58.91
2018-05-24T06:28:28.157Z,58.62
2018-05-24T06:29:28.141Z,58.81
2018-05-24T06:30:28.161Z,58.84
2018-05-24T06:31:28.135Z,58.84
2018-05-24T06:32:28.150Z,59.38
2018-05-24T06:33:28.127Z,59.58
2018-05-24T06:34:28.104Z,59.70
2018-05-24T06:35:28.106Z,58.94
2018-05-24T06:36:28.121Z,58.94
2018-05-24T06:37:28.091Z,59.51
2018-05-24T06:38:28.071Z,58.94
2018-05-24T06:39:28.057Z,59.03
2018-05-24T06:40:28.123Z,58.74
2018-05-24T06:41:28.045Z,58.74
2018-05-24T06:42:28.037Z,59.41
2018-05-24T06:43:28.032Z,59.70
2018-05-24T06:44:28.025Z,58.55
2018-05-24T06:45:28.026Z,58.84
2018-05-24T06:46:28.082Z,58.94
2018-05-24T06:47:28.052Z,58.74
2018-05-24T06:48:28.001Z,58.55
2018-05-24T06:49:27.994Z,58.94
2018-05-24T06:50:27.979Z,58.74
2018-05-24T06:51:27.991Z,58.84
2018-05-24T06:52:27.968Z,58.84
2018-05-24T06:53:28.087Z,58.84
2018-05-24T06:54:27.959Z,58.96
2018-05-24T06:55:27.936Z,58.87
2018-05-24T06:56:27.936Z,58.77
2018-05-24T06:57:27.924Z,58.87
2018-05-24T06:58:27.917Z,58.58
2018-05-24T06:59:27.916Z,59.73
2018-05-24T07:00:27.901Z,58.67
2018-05-24T07:01:27.889Z,58.77
2018-05-24T07:02:27.896Z,59.44
2018-05-24T07:03:27.884Z,58.87
2018-05-24T07:04:28.181Z,58.48
2018-05-24T07:05:27.868Z,58.96
2018-05-24T07:06:27.936Z,58.87
2018-05-24T07:07:27.953Z,58.58
2018-05-24T07:08:27.844Z,58.48
2018-05-24T07:09:27.842Z,58.20
2018-05-24T07:10:27.852Z,58.17
2018-05-24T07:11:27.815Z,58.67
2018-05-24T07:12:27.811Z,58.67
2018-05-24T07:13:27.814Z,58.94
2018-05-24T07:14:27.962Z,58.55
2018-05-24T07:15:27.798Z,59.06
2018-05-24T07:16:27.793Z,59.61
2018-05-24T07:17:27.785Z,59.61
2018-05-24T07:18:27.808Z,59.61
2018-05-24T07:19:27.761Z,59.03
2018-05-24T07:20:27.793Z,58.36
2018-05-24T07:21:27.745Z,58.26
2018-05-24T07:22:27.744Z,58.55
2018-05-24T07:23:27.738Z,58.64
2018-05-24T07:24:27.718Z,58.84
2018-05-24T07:25:27.737Z,59.22
2018-05-24T07:26:27.703Z,59.70
2018-05-24T07:27:27.708Z,59.80
2018-05-24T07:28:27.692Z,59.41
2018-05-24T07:29:27.687Z,59.51
2018-05-24T07:30:27.726Z,59.67
2018-05-24T07:31:27.676Z,60.38
2018-05-24T07:32:27.662Z,59.80
2018-05-24T07:33:27.656Z,60.18
2018-05-24T07:34:27.672Z,60.28
2018-05-24T07:35:27.645Z,60.75
2018-05-24T07:36:27.637Z,60.57
2018-05-24T07:37:27.631Z,60.47
2018-05-24T07:38:27.617Z,60.95
2018-05-24T07:39:27.644Z,61.43
2018-05-24T07:40:27.613Z,61.05
2018-05-24T07:41:27.631Z,61.05
2018-05-24T07:42:27.596Z,60.95
2018-05-24T07:43:27.592Z,61.24
2018-05-24T07:44:27.578Z,61.55
2018-05-24T07:45:27.579Z,61.55
2018-05-24T07:46:27.591Z,61.46
2018-05-24T07:47:27.549Z,61.65
2018-05-24T07:48:27.543Z,61.27
2018-05-24T07:49:27.531Z,61.46
2018-05-24T07:50:27.535Z,61.65
2018-05-24T07:51:27.524Z,61.27
2018-05-24T07:52:27.525Z,61.30
2018-05-24T07:53:27.514Z,61.01
2018-05-24T07:54:27.498Z,60.34
2018-05-24T07:55:27.526Z,60.63
2018-05-24T07:56:27.495Z,60.63
2018-05-24T07:57:27.511Z,60.63
2018-05-24T07:58:27.481Z,60.43
2018-05-24T07:59:27.500Z,60.43
2018-05-24T08:00:27.456Z,61.20
2018-05-24T08:01:27.462Z,60.82
2018-05-24T08:02:27.448Z,60.82
2018-05-24T08:03:27.445Z,61.01
2018-05-24T08:04:27.566Z,60.72
2018-05-24T08:05:27.430Z,60.82
2018-05-24T08:06:27.420Z,60.63
2018-05-24T08:07:27.481Z,61.20
2018-05-24T08:08:27.412Z,61.14
2018-05-24T08:09:27.400Z,61.23
2018-05-24T08:10:27.422Z,60.56
2018-05-24T08:11:27.443Z,60.85
2018-05-24T08:12:27.376Z,59.99
2018-05-24T08:13:27.382Z,59.60
2018-05-24T08:14:27.369Z,59.69
2018-05-24T08:15:27.362Z,60.08
2018-05-24T08:16:27.357Z,60.56
2018-05-24T08:17:27.347Z,60.75
2018-05-24T08:18:27.341Z,60.66
2018-05-24T08:19:27.332Z,60.17
2018-05-24T08:20:27.321Z,59.79
2018-05-24T08:21:27.317Z,60.17
2018-05-24T08:22:27.653Z,60.37
2018-05-24T08:23:27.302Z,60.46
2018-05-24T08:24:27.295Z,60.66
2018-05-24T08:25:27.284Z,60.75
2018-05-24T08:26:27.282Z,60.27
2018-05-24T08:27:27.307Z,60.17
2018-05-24T08:28:27.271Z,60.46
2018-05-24T08:29:27.262Z,60.17
2018-05-24T08:30:27.275Z,60.37
2018-05-24T08:31:27.247Z,60.17
2018-05-24T08:32:27.249Z,60.66
2018-05-24T08:33:27.251Z,60.27
2018-05-24T08:34:27.234Z,60.56
2018-05-24T08:35:27.372Z,60.75
2018-05-24T08:36:27.212Z,60.75
2018-05-24T08:37:27.201Z,60.94
2018-05-24T08:38:27.195Z,60.66
2018-05-24T08:39:27.189Z,60.46
2018-05-24T08:40:27.188Z,61.33
2018-05-24T08:41:27.318Z,61.23
2018-05-24T08:42:27.167Z,61.04
2018-05-24T08:43:27.169Z,60.75
2018-05-24T08:44:27.163Z,60.66
2018-05-24T08:45:27.147Z,60.56
2018-05-24T08:46:27.154Z,60.46
2018-05-24T08:47:27.260Z,60.37
2018-05-24T08:48:27.490Z,61.33
2018-05-24T08:49:27.135Z,61.71
2018-05-24T08:50:27.121Z,61.61
2018-05-24T08:51:27.120Z,61.43
2018-05-24T08:52:27.113Z,61.52
2018-05-24T08:53:27.193Z,61.91
2018-05-24T08:54:27.101Z,61.94
2018-05-24T08:55:27.095Z,61.74
2018-05-24T08:56:27.080Z,61.36
2018-05-24T08:57:27.082Z,60.78
2018-05-24T08:58:27.105Z,60.88
2018-05-24T08:59:27.121Z,60.69
2018-05-24T09:00:27.073Z,60.69
2018-05-24T09:01:27.083Z,60.78
2018-05-24T09:02:27.056Z,60.78
2018-05-24T09:03:27.044Z,59.47
2018-05-24T09:04:27.040Z,59.53
2018-05-24T09:05:27.143Z,59.63
2018-05-24T09:06:27.015Z,60.21
2018-05-24T09:07:27.016Z,60.62
2018-05-24T09:08:27.018Z,60.72
2018-05-24T09:09:27.011Z,60.72
2018-05-24T09:10:27.006Z,59.94
2018-05-24T09:11:27.070Z,60.91
2018-05-24T09:12:26.985Z,60.65
2018-05-24T09:13:26.995Z,60.75
2018-05-24T09:14:26.969Z,60.27
2018-05-24T09:15:26.974Z,60.55
2018-05-24T09:16:26.964Z,60.27
2018-05-24T09:17:27.012Z,60.10
2018-05-24T09:18:26.954Z,59.91
2018-05-24T09:19:26.946Z,59.23
2018-05-24T09:20:26.946Z,59.14
2018-05-24T09:21:26.950Z,58.65
2018-05-24T09:22:26.998Z,58.08
2018-05-24T09:23:26.944Z,57.69
2018-05-24T09:24:26.925Z,57.69
2018-05-24T09:25:26.923Z,57.57
2018-05-24T09:26:26.926Z,57.76
2018-05-24T09:27:26.907Z,57.28
2018-05-24T09:28:26.969Z,57.67
2018-05-24T09:29:26.958Z,57.37
2018-05-24T09:30:26.892Z,57.37
2018-05-24T09:31:26.903Z,57.47
2018-05-24T09:32:26.879Z,57.57
2018-05-24T09:33:26.882Z,56.90
2018-05-24T09:34:26.887Z,57.47
2018-05-24T09:35:26.872Z,57.57
2018-05-24T09:36:26.862Z,57.28
2018-05-24T09:37:26.858Z,56.51
2018-05-24T09:38:26.850Z,56.51
2018-05-24T09:39:26.876Z,57.09
2018-05-24T09:40:26.847Z,56.80
2018-05-24T09:41:26.839Z,56.00
2018-05-24T09:42:26.835Z,56.77
2018-05-24T09:43:26.861Z,56.58
2018-05-24T09:44:26.957Z,56.58
2018-05-24T09:45:26.814Z,56.87
2018-05-24T09:46:26.807Z,56.77
2018-05-24T09:47:26.806Z,56.87
2018-05-24T09:48:26.797Z,56.67
2018-05-24T09:49:26.792Z,56.58
2018-05-24T09:50:26.819Z,56.38
2018-05-24T09:51:26.787Z,56.87
2018-05-24T09:52:26.773Z,56.77
2018-05-24T09:53:26.761Z,56.29
2018-05-24T09:54:26.757Z,56.00
2018-05-24T09:55:26.862Z,56.87
2018-05-24T09:56:26.877Z,56.29
2018-05-24T09:57:26.742Z,56.20
2018-05-24T09:58:26.739Z,56.29
2018-05-24T09:59:26.727Z,56.77
2018-05-24T10:00:26.727Z,56.48
2018-05-24T10:01:26.709Z,56.29
2018-05-24T10:02:26.734Z,56.45
2018-05-24T10:03:26.713Z,56.87
2018-05-24T10:04:26.709Z,56.77
2018-05-24T10:05:26.685Z,57.22
2018-05-24T10:06:26.837Z,57.15
2018-05-24T10:07:26.683Z,57.32
2018-05-24T10:08:26.674Z,57.22
2018-05-24T10:09:26.678Z,57.03
2018-05-24T10:10:26.664Z,57.22
2018-05-24T10:11:26.654Z,57.13
2018-05-24T10:12:26.696Z,56.65
2018-05-24T10:13:26.640Z,56.74
2018-05-24T10:14:26.643Z,56.74
2018-05-24T10:15:26.627Z,56.65
2018-05-24T10:16:26.677Z,57.13
2018-05-24T10:17:26.619Z,57.03
2018-05-24T10:18:26.627Z,57.99
2018-05-24T10:19:26.641Z,57.60
2018-05-24T10:20:26.608Z,57.42
2018-05-24T10:21:26.593Z,57.42
2018-05-24T10:22:26.583Z,57.60
2018-05-24T10:23:27.474Z,57.35
2018-05-24T10:24:27.642Z,57.54
2018-05-24T10:25:26.561Z,57.54
2018-05-24T10:26:26.576Z,57.25
2018-05-24T10:27:28.126Z,57.45
2018-05-24T10:28:26.609Z,57.64
2018-05-24T10:29:26.714Z,57.15
2018-05-24T10:30:26.552Z,57.35
2018-05-24T10:31:26.631Z,57.92
2018-05-24T10:32:26.541Z,57.45
2018-05-24T10:33:26.528Z,57.45
2018-05-24T10:34:26.519Z,57.83
2018-05-24T10:35:26.526Z,57.35
2018-05-24T10:36:26.505Z,57.15
2018-05-24T10:37:26.663Z,57.54
2018-05-24T10:38:26.499Z,57.35
2018-05-24T10:39:26.509Z,57.86
2018-05-24T10:40:26.479Z,57.54
2018-05-24T10:41:26.473Z,57.47
2018-05-24T10:42:26.503Z,57.95
2018-05-24T10:43:26.454Z,57.47
2018-05-24T10:44:26.459Z,57.95
2018-05-24T10:45:26.444Z,57.76
2018-05-24T10:46:26.441Z,57.57
2018-05-24T10:47:26.517Z,57.31
2018-05-24T10:48:26.429Z,57.67
2018-05-24T10:49:26.432Z,57.50
2018-05-24T10:50:26.424Z,57.50
2018-05-24T10:51:26.406Z,56.92
2018-05-24T10:52:26.418Z,57.02
2018-05-24T10:53:26.404Z,57.12
2018-05-24T10:54:26.429Z,57.40
2018-05-24T10:55:26.417Z,57.98
2018-05-24T10:56:26.423Z,57.60
2018-05-24T10:57:26.408Z,57.69
2018-05-24T10:58:26.461Z,57.50
2018-05-24T10:59:26.400Z,57.31
2018-05-24T11:00:26.394Z,57.12
2018-05-24T11:01:26.392Z,57.89
2018-05-24T11:02:26.394Z,57.43
2018-05-24T11:03:26.486Z,57.53
2018-05-24T11:04:26.530Z,57.92
2018-05-24T11:05:26.376Z,57.05
2018-05-24T11:06:26.410Z,57.34
2018-05-24T11:07:26.362Z,56.85
2018-05-24T11:08:26.364Z,56.09
2018-05-24T11:09:26.350Z,56.37
2018-05-24T11:10:26.356Z,55.89
2018-05-24T11:11:26.331Z,56.37
2018-05-24T11:12:26.335Z,56.47
2018-05-24T11:13:26.340Z,56.18
2018-05-24T11:14:26.321Z,56.18
2018-05-24T11:15:26.350Z,56.09
2018-05-24T11:16:26.326Z,55.89
2018-05-24T11:17:26.336Z,55.99
2018-05-24T11:18:26.303Z,56.95
2018-05-24T11:19:26.302Z,56.76
2018-05-24T11:20:26.287Z,56.95
2018-05-24T11:21:26.327Z,56.66
2018-05-24T11:22:26.291Z,56.21
2018-05-24T11:23:26.357Z,55.15
2018-05-24T11:24:26.288Z,54.98
2018-05-24T11:25:26.266Z,53.17
2018-05-24T11:26:26.272Z,53.08
2018-05-24T11:27:26.264Z,52.98
2018-05-24T11:28:26.255Z,52.40
2018-05-24T11:29:26.317Z,51.82
2018-05-24T11:30:26.252Z,51.53
2018-05-24T11:31:26.253Z,51.99
2018-05-24T11:32:26.246Z,52.19
2018-05-24T11:33:26.241Z,52.28
2018-05-24T11:34:26.247Z,52.67
2018-05-24T11:35:26.263Z,53.15
2018-05-24T11:36:26.261Z,53.89
2018-05-24T11:37:26.351Z,53.05
2018-05-24T11:38:26.231Z,52.83
2018-05-24T11:39:26.229Z,53.41
2018-05-24T11:40:26.210Z,53.13
2018-05-24T11:41:26.235Z,53.70
2018-05-24T11:42:26.210Z,53.51
2018-05-24T11:43:26.844Z,53.58
2018-05-24T11:44:26.206Z,54.44
2018-05-24T11:45:26.200Z,54.54
2018-05-24T11:46:26.186Z,54.44
2018-05-24T11:47:26.189Z,53.77
2018-05-24T11:48:26.216Z,53.48
2018-05-24T11:49:26.189Z,53.77
2018-05-24T11:50:26.167Z,54.35
2018-05-24T11:51:26.172Z,54.42
2018-05-24T11:52:26.171Z,54.64
2018-05-24T11:53:26.170Z,54.54
2018-05-24T11:54:26.129Z,54.61
2018-05-24T11:55:26.119Z,54.42
2018-05-24T11:56:26.126Z,54.42
2018-05-24T11:57:26.103Z,54.71
2018-05-24T11:58:26.116Z,54.90
2018-05-24T11:59:26.114Z,55.09
2018-05-24T12:00:26.166Z,55.77
2018-05-24T12:01:26.744Z,55.77
2018-05-24T12:02:26.862Z,55.96
2018-05-24T12:03:26.770Z,55.87
2018-05-24T12:04:26.705Z,56.35
2018-05-24T12:05:26.071Z,56.82
2018-05-24T12:06:26.065Z,57.12
2018-05-24T12:07:26.058Z,57.12
2018-05-24T12:08:26.624Z,57.40
2018-05-24T12:09:26.058Z,57.89
2018-05-24T12:10:26.045Z,58.17
2018-05-24T12:11:26.053Z,57.89
2018-05-24T12:12:26.019Z,58.65
2018-05-24T12:13:26.033Z,59.14
2018-05-24T12:14:26.061Z,59.62
2018-05-24T12:15:26.015Z,60.39
2018-05-24T12:16:26.039Z,60.75
2018-05-24T12:17:26.013Z,60.75
2018-05-24T12:18:26.028Z,61.32
2018-05-24T12:19:26.061Z,60.94
2018-05-24T12:20:25.998Z,61.45
2018-05-24T12:21:26.020Z,61.71
2018-05-24T12:22:25.975Z,61.22
2018-05-24T12:23:26.016Z,61.52
2018-05-24T12:24:25.965Z,62.00
2018-05-24T12:25:25.997Z,62.29
2018-05-24T12:26:26.476Z,62.67
2018-05-24T12:27:25.954Z,63.15
2018-05-24T12:28:27.686Z,62.57
2018-05-24T12:29:25.944Z,63.06
2018-05-24T12:30:25.935Z,63.64
2018-05-24T12:31:25.925Z,63.60
2018-05-24T12:32:25.908Z,64.56
2018-05-24T12:33:25.911Z,64.86
2018-05-24T12:34:25.914Z,64.86
2018-05-24T12:35:25.947Z,65.05
2018-05-24T12:36:25.899Z,64.86
2018-05-24T12:37:25.898Z,65.14
2018-05-24T12:38:25.937Z,65.63
2018-05-24T12:39:25.888Z,66.07
2018-05-24T12:40:25.881Z,66.68
2018-05-24T12:41:25.867Z,66.84
2018-05-24T12:42:25.866Z,66.84
2018-05-24T12:43:25.856Z,67.32
2018-05-24T12:44:25.845Z,68.19
2018-05-24T12:45:25.846Z,68.29
2018-05-24T12:46:25.974Z,68.29
2018-05-24T12:47:26.295Z,68.38
2018-05-24T12:48:26.390Z,68.38
2018-05-24T12:49:25.813Z,68.76
2018-05-24T12:50:26.409Z,68.48
2018-05-24T12:51:26.008Z,69.63
2018-05-24T12:52:26.515Z,70.21
2018-05-24T12:53:25.800Z,69.69
2018-05-24T12:54:26.909Z,69.79
2018-05-24T12:55:25.793Z,70.40
2018-05-24T12:56:25.792Z,70.65
2018-05-24T12:57:26.423Z,70.37
2018-05-24T12:58:26.006Z,70.56
2018-05-24T12:59:25.809Z,70.27
2018-05-24T13:00:26.006Z,70.78
2018-05-24T13:01:25.770Z,70.88
2018-05-24T13:02:25.724Z,71.26
2018-05-24T13:03:25.882Z,71.55
2018-05-24T13:04:25.713Z,71.08
2018-05-24T13:05:25.794Z,71.36
2018-05-24T13:06:26.067Z,71.55
2018-05-24T13:07:25.697Z,70.78
2018-05-24T13:08:25.705Z,71.08
2018-05-24T13:09:25.786Z,70.98
2018-05-24T13:10:25.711Z,71.46
2018-05-24T13:11:25.685Z,71.36
2018-05-24T13:12:25.679Z,71.52
2018-05-24T13:13:25.661Z,71.84
2018-05-24T13:14:25.685Z,71.84
2018-05-24T13:15:25.868Z,72.13
2018-05-24T13:16:25.749Z,72.13
2018-05-24T13:17:25.644Z,72.13
2018-05-24T13:18:25.630Z,72.13
2018-05-24T13:19:25.801Z,71.84
2018-05-24T13:20:25.633Z,72.52
2018-05-24T13:21:25.676Z,72.61
2018-05-24T13:22:25.761Z,72.80
2018-05-24T13:23:25.602Z,72.80
2018-05-24T13:24:25.730Z,72.90
2018-05-24T13:25:25.596Z,72.52
2018-05-24T13:26:25.592Z,71.84
2018-05-24T13:27:25.576Z,72.32
2018-05-24T13:28:25.581Z,71.84
2018-05-24T13:29:25.570Z,72.13
2018-05-24T13:30:25.551Z,72.32
2018-05-24T13:31:25.538Z,72.23
2018-05-24T13:32:25.547Z,72.80
2018-05-24T13:33:25.570Z,72.61
2018-05-24T13:34:25.588Z,72.80
2018-05-24T13:35:25.531Z,72.80
2018-05-24T13:36:25.550Z,73.03
2018-05-24T13:37:25.504Z,73.09
2018-05-24T13:38:25.504Z,72.84
2018-05-24T13:39:25.536Z,72.84
2018-05-24T13:40:25.683Z,73.00
2018-05-24T13:41:25.631Z,72.84
2018-05-24T13:42:25.477Z,72.74
2018-05-24T13:43:25.474Z,72.65
2018-05-24T13:44:25.465Z,73.03
2018-05-24T13:45:25.461Z,73.32
2018-05-24T13:46:25.454Z,73.09
2018-05-24T13:47:25.474Z,73.42
2018-05-24T13:48:25.446Z,73.03
2018-05-24T13:49:25.474Z,73.90
2018-05-24T13:50:25.437Z,73.80
2018-05-24T13:51:25.424Z,73.61
2018-05-24T13:52:25.440Z,73.32
2018-05-24T13:53:25.412Z,73.13
2018-05-24T13:54:25.465Z,72.74